Time;durP1;ratioP1;P1;durP2;ratioP2;P2;SDS_P1;SDS_P2;PMS_P1;PMS_P2;Temp;Humidity;BMP_temperature;BMP_pressure;BME280_temperature;BME280_humidity;BME280_pressure;Samples;Min_cycle;Max_cycle;Signal;HPM_P1;HPM_P2
2023/07/19 00:01:55;;;;;;;;;;;20.20;99.90;;;;;;5026434;28;19989;-70
2023/07/19 00:04:23;;;;;;;;;;;20.20;99.90;;;;;;5023910;28;19953;-70
2023/07/19 00:06:50;;;;;;;;;;;20.10;99.90;;;;;;5026358;28;19953;-70
2023/07/19 00:09:18;;;;;;;;;;;20.10;99.90;;;;;;5025721;28;19929;-71
2023/07/19 00:11:44;;;;;;;;;;;20.00;99.90;;;;;;5023303;28;19921;-71
2023/07/19 00:14:11;;;;;;;;;;;20.00;99.90;;;;;;5026310;28;19922;-71
2023/07/19 00:16:37;;;;;;;;;;;20.00;99.90;;;;;;5025698;28;19993;-70
2023/07/19 00:19:04;;;;;;;;;;;19.90;99.90;;;;;;5025161;28;19921;-70
2023/07/19 00:21:31;;;;;;;;;;;19.70;99.90;;;;;;5026164;28;19955;-71
2023/07/19 00:23:57;;;;;;;;;;;19.60;99.90;;;;;;5025797;28;19960;-71
2023/07/19 00:26:26;;;;;;;;;;;19.50;99.90;;;;;;5025949;28;19921;-70
2023/07/19 00:28:52;;;;;;;;;;;19.40;99.90;;;;;;5024941;28;19921;-70
2023/07/19 00:31:19;;;;;;;;;;;19.40;99.90;;;;;;5025956;28;19953;-70
2023/07/19 00:33:46;;;;;;;;;;;19.30;99.90;;;;;;5026025;28;19921;-71
2023/07/19 00:36:12;;;;;;;;;;;19.30;99.90;;;;;;5025769;28;19921;-70
2023/07/19 00:38:39;;;;;;;;;;;19.30;99.90;;;;;;5025047;28;19953;-70
2023/07/19 00:41:07;;;;;;;;;;;19.30;99.90;;;;;;5022517;28;19922;-70
2023/07/19 00:46:20;;;;;;;;;;;19.30;99.90;;;;;;5025224;28;20232;-70
2023/07/19 00:48:47;;;;;;;;;;;19.30;99.90;;;;;;5024785;28;19993;-70
2023/07/19 00:51:14;;;;;;;;;;;19.20;99.90;;;;;;5024750;28;19928;-70
2023/07/19 00:53:41;;;;;;;;;;;19.30;99.90;;;;;;5025501;28;19937;-68
2023/07/19 00:56:08;;;;;;;;;;;19.20;99.90;;;;;;5024338;28;19921;-70
2023/07/19 00:58:36;;;;;;;;;;;19.20;99.90;;;;;;5024797;28;19996;-70
2023/07/19 01:01:02;;;;;;;;;;;19.20;99.90;;;;;;5025163;28;20256;-70
2023/07/19 01:03:29;;;;;;;;;;;19.20;99.90;;;;;;5010960;28;19986;-70
2023/07/19 01:05:56;;;;;;;;;;;19.10;99.90;;;;;;5019008;28;19980;-70
2023/07/19 01:08:23;;;;;;;;;;;19.10;99.90;;;;;;5024092;28;19928;-69
2023/07/19 01:10:50;;;;;;;;;;;19.00;99.90;;;;;;5025218;28;20109;-70
2023/07/19 01:13:16;;;;;;;;;;;19.00;99.90;;;;;;5025105;28;19928;-70
2023/07/19 01:15:44;;;;;;;;;;;19.00;99.90;;;;;;5024764;28;20005;-70
2023/07/19 01:18:11;;;;;;;;;;;18.90;99.90;;;;;;5023805;28;19921;-70
2023/07/19 01:20:37;;;;;;;;;;;18.90;99.90;;;;;;5025138;28;19928;-70
2023/07/19 01:23:05;;;;;;;;;;;18.90;99.90;;;;;;5025004;28;19928;-69
2023/07/19 01:25:32;;;;;;;;;;;18.90;99.90;;;;;;5024654;28;19921;-70
2023/07/19 01:28:00;;;;;;;;;;;18.80;99.90;;;;;;5023995;28;19935;-70
2023/07/19 01:30:26;;;;;;;;;;;18.80;99.90;;;;;;5024568;28;19925;-70
2023/07/19 01:32:53;;;;;;;;;;;18.80;99.90;;;;;;5024685;28;19988;-70
2023/07/19 01:35:20;;;;;;;;;;;18.70;99.90;;;;;;5013152;28;20243;-70
2023/07/19 01:37:46;;;;;;;;;;;18.70;99.90;;;;;;5023533;28;19960;-70
2023/07/19 01:40:14;;;;;;;;;;;18.70;99.90;;;;;;5024385;28;19928;-70
2023/07/19 01:42:41;;;;;;;;;;;18.60;99.90;;;;;;5016608;28;20260;-70
2023/07/19 01:45:08;;;;;;;;;;;18.60;99.90;;;;;;5004831;28;19985;-70
2023/07/19 01:47:35;;;;;;;;;;;18.60;99.90;;;;;;5004940;28;19997;-70
2023/07/19 01:50:02;;;;;;;;;;;18.60;99.90;;;;;;5004286;28;19921;-70
2023/07/19 01:52:29;;;;;;;;;;;18.50;99.90;;;;;;5004610;28;19921;-70
2023/07/19 01:54:56;;;;;;;;;;;18.50;99.90;;;;;;5004754;28;19923;-70
2023/07/19 01:57:24;;;;;;;;;;;18.40;99.90;;;;;;5019605;28;20253;-69
2023/07/19 01:59:50;;;;;;;;;;;18.40;99.90;;;;;;5023425;28;20272;-68
2023/07/19 02:02:17;;;;;;;;;;;18.30;99.90;;;;;;5024315;28;19922;-70
2023/07/19 02:04:43;;;;;;;;;;;18.30;99.90;;;;;;5024343;28;19997;-70
2023/07/19 02:07:10;;;;;;;;;;;18.20;99.90;;;;;;5024277;28;19980;-70
2023/07/19 02:09:37;;;;;;;;;;;18.30;99.90;;;;;;5023078;28;19980;-69
2023/07/19 02:12:04;;;;;;;;;;;18.20;99.90;;;;;;5002121;28;19964;-70
2023/07/19 02:14:32;;;;;;;;;;;18.20;99.90;;;;;;5004473;28;19928;-70
2023/07/19 02:16:58;;;;;;;;;;;18.10;99.90;;;;;;5021572;28;20235;-70
2023/07/19 02:19:25;;;;;;;;;;;18.10;99.90;;;;;;5022908;28;19982;-70
2023/07/19 02:21:51;;;;;;;;;;;18.10;99.90;;;;;;5023945;28;19957;-70
2023/07/19 02:24:18;;;;;;;;;;;18.10;99.90;;;;;;5023928;28;19928;-70
2023/07/19 02:26:44;;;;;;;;;;;18.10;99.90;;;;;;5023568;28;19963;-70
2023/07/19 02:29:11;;;;;;;;;;;18.10;99.90;;;;;;5023217;28;20175;-70
2023/07/19 02:31:39;;;;;;;;;;;18.00;99.90;;;;;;5023797;28;19928;-70
2023/07/19 02:34:06;;;;;;;;;;;18.00;99.90;;;;;;5023524;28;19928;-70
2023/07/19 02:36:34;;;;;;;;;;;18.00;99.90;;;;;;5023759;28;20220;-69
2023/07/19 02:39:01;;;;;;;;;;;18.00;99.90;;;;;;5023306;28;19968;-70
2023/07/19 02:41:27;;;;;;;;;;;18.00;99.90;;;;;;5023994;28;20262;-69
2023/07/19 02:43:54;;;;;;;;;;;17.90;99.90;;;;;;5023879;28;19928;-70
2023/07/19 02:46:21;;;;;;;;;;;17.90;99.90;;;;;;5023829;28;19953;-70
2023/07/19 02:48:49;;;;;;;;;;;17.80;99.90;;;;;;5031589;28;19921;-70
2023/07/19 02:51:15;;;;;;;;;;;17.70;99.90;;;;;;5043550;28;19927;-70
2023/07/19 02:53:42;;;;;;;;;;;17.70;99.90;;;;;;5043581;28;19980;-70
2023/07/19 02:56:08;;;;;;;;;;;17.70;99.90;;;;;;5039001;28;19960;-70
2023/07/19 02:58:35;;;;;;;;;;;17.70;99.90;;;;;;5023118;28;19989;-70
2023/07/19 03:01:02;;;;;;;;;;;17.70;99.90;;;;;;5023639;28;20421;-70
2023/07/19 03:03:29;;;;;;;;;;;17.60;99.90;;;;;;5022157;28;19984;-70
2023/07/19 03:05:57;;;;;;;;;;;17.60;99.90;;;;;;5024483;28;20098;-70
2023/07/19 03:08:24;;;;;;;;;;;17.70;99.90;;;;;;5042316;28;19921;-70
2023/07/19 03:10:52;;;;;;;;;;;17.70;99.90;;;;;;5043353;28;19999;-70
2023/07/19 03:13:21;;;;;;;;;;;17.60;99.90;;;;;;5039897;28;19929;-70
2023/07/19 03:15:48;;;;;;;;;;;17.50;99.90;;;;;;5046841;28;19921;-70
2023/07/19 03:18:14;;;;;;;;;;;17.50;99.90;;;;;;5046491;28;20574;-70
2023/07/19 03:20:41;;;;;;;;;;;17.50;99.90;;;;;;5047206;28;19932;-70
2023/07/19 03:23:09;;;;;;;;;;;17.50;99.90;;;;;;5046856;28;19988;-70
2023/07/19 03:25:36;;;;;;;;;;;17.50;99.90;;;;;;5046671;28;19927;-70
2023/07/19 03:28:02;;;;;;;;;;;17.50;99.90;;;;;;5027205;28;20239;-70
2023/07/19 03:30:29;;;;;;;;;;;17.50;99.90;;;;;;5027332;28;19957;-70
2023/07/19 03:32:55;;;;;;;;;;;17.60;99.90;;;;;;5027191;28;20004;-70
2023/07/19 03:35:22;;;;;;;;;;;17.60;99.90;;;;;;5038093;28;20161;-70
2023/07/19 03:37:49;;;;;;;;;;;17.60;99.90;;;;;;5046440;28;19988;-68
2023/07/19 03:40:17;;;;;;;;;;;17.60;99.90;;;;;;5046098;28;19992;-70
2023/07/19 03:42:43;;;;;;;;;;;17.60;99.90;;;;;;5046792;28;20160;-70
2023/07/19 03:45:10;;;;;;;;;;;17.60;99.90;;;;;;5046610;28;19993;-70
2023/07/19 03:47:39;;;;;;;;;;;17.60;99.90;;;;;;5046390;28;19921;-68
2023/07/19 03:50:06;;;;;;;;;;;17.60;99.90;;;;;;5046092;28;19943;-70
2023/07/19 03:52:33;;;;;;;;;;;17.60;99.90;;;;;;5046451;28;19921;-69
2023/07/19 03:54:59;;;;;;;;;;;17.60;99.90;;;;;;5045967;28;19921;-69
2023/07/19 03:57:27;;;;;;;;;;;17.60;99.90;;;;;;5033263;28;19964;-70
2023/07/19 03:59:54;;;;;;;;;;;17.60;99.90;;;;;;5026065;28;19984;-70
2023/07/19 04:02:23;;;;;;;;;;;17.60;99.90;;;;;;5024049;28;19929;-70
2023/07/19 04:04:49;;;;;;;;;;;17.60;99.90;;;;;;5026465;28;19984;-70
2023/07/19 04:07:16;;;;;;;;;;;17.60;99.90;;;;;;5026240;28;19972;-70
2023/07/19 04:09:44;;;;;;;;;;;17.50;99.90;;;;;;5025718;28;19964;-70
2023/07/19 04:12:10;;;;;;;;;;;17.50;99.90;;;;;;5026272;28;20205;-70
2023/07/19 04:14:38;;;;;;;;;;;17.50;99.90;;;;;;5026017;28;20255;-70
2023/07/19 04:17:05;;;;;;;;;;;17.50;99.90;;;;;;5026325;28;19928;-70
2023/07/19 04:19:32;;;;;;;;;;;17.50;99.90;;;;;;5025164;28;19984;-70
2023/07/19 04:21:59;;;;;;;;;;;17.50;99.90;;;;;;5026263;28;19944;-69
2023/07/19 04:24:25;;;;;;;;;;;17.50;99.90;;;;;;5026023;28;19980;-70
2023/07/19 04:26:52;;;;;;;;;;;17.50;99.90;;;;;;5025475;28;20247;-70
2023/07/19 04:29:19;;;;;;;;;;;17.60;99.90;;;;;;5025051;28;20283;-70
2023/07/19 04:31:47;;;;;;;;;;;17.60;99.90;;;;;;5026109;28;19921;-70
2023/07/19 04:34:14;;;;;;;;;;;17.70;99.90;;;;;;5026011;28;19976;-70
2023/07/19 04:36:41;;;;;;;;;;;17.70;99.90;;;;;;5025659;28;19980;-71
2023/07/19 04:39:07;;;;;;;;;;;17.70;99.90;;;;;;5025014;28;20095;-70
2023/07/19 04:41:34;;;;;;;;;;;17.70;99.90;;;;;;5025544;28;19928;-71
2023/07/19 04:44:01;;;;;;;;;;;17.80;99.90;;;;;;5025957;28;19922;-71
2023/07/19 04:46:27;;;;;;;;;;;17.80;99.90;;;;;;5025666;28;19957;-70
2023/07/19 04:48:55;;;;;;;;;;;17.80;99.90;;;;;;5024778;28;20272;-72
2023/07/19 04:51:22;;;;;;;;;;;17.80;99.90;;;;;;5023035;28;19988;-68
2023/07/19 04:53:48;;;;;;;;;;;17.80;99.90;;;;;;5025440;28;19952;-68
2023/07/19 04:56:15;;;;;;;;;;;17.70;99.90;;;;;;5025097;28;19928;-68
2023/07/19 04:58:42;;;;;;;;;;;17.80;99.90;;;;;;5024376;28;20249;-67
2023/07/19 05:01:09;;;;;;;;;;;17.80;99.90;;;;;;5022705;28;19993;-67
2023/07/19 05:03:36;;;;;;;;;;;17.80;99.90;;;;;;5025527;28;19928;-68
2023/07/19 05:06:04;;;;;;;;;;;17.90;99.90;;;;;;5025080;28;20361;-70
2023/07/19 05:08:31;;;;;;;;;;;18.00;99.90;;;;;;5024364;28;19921;-68
2023/07/19 05:10:58;;;;;;;;;;;18.10;99.90;;;;;;5021156;28;19922;-68
2023/07/19 05:13:24;;;;;;;;;;;18.10;99.90;;;;;;5006301;28;19949;-68
2023/07/19 05:15:51;;;;;;;;;;;18.20;99.90;;;;;;5024710;28;20182;-67
2023/07/19 05:18:18;;;;;;;;;;;18.20;99.90;;;;;;5024057;28;20129;-67
2023/07/19 05:20:44;;;;;;;;;;;18.40;99.90;;;;;;5023698;28;19945;-67
2023/07/19 05:23:12;;;;;;;;;;;18.40;99.90;;;;;;5024633;28;19979;-68
2023/07/19 05:25:39;;;;;;;;;;;18.50;99.90;;;;;;5024571;28;19960;-67
2023/07/19 05:28:06;;;;;;;;;;;18.50;99.90;;;;;;5020971;28;19949;-68
2023/07/19 05:30:33;;;;;;;;;;;18.60;99.90;;;;;;5022537;28;19956;-68
2023/07/19 05:32:59;;;;;;;;;;;18.80;99.90;;;;;;5024903;28;20162;-68
2023/07/19 05:35:26;;;;;;;;;;;18.80;99.90;;;;;;5024624;28;19948;-68
2023/07/19 05:37:52;;;;;;;;;;;18.90;99.90;;;;;;5023390;28;20236;-70
2023/07/19 05:40:21;;;;;;;;;;;18.90;99.90;;;;;;5005498;28;19984;-71
2023/07/19 05:42:48;;;;;;;;;;;18.90;99.90;;;;;;5004998;28;19928;-71
2023/07/19 05:45:15;;;;;;;;;;;19.00;99.90;;;;;;5004676;28;19926;-70
2023/07/19 05:47:41;;;;;;;;;;;19.10;99.90;;;;;;5004213;28;19928;-70
2023/07/19 05:50:08;;;;;;;;;;;19.20;99.90;;;;;;5004734;28;20224;-70
2023/07/19 05:52:35;;;;;;;;;;;19.40;99.90;;;;;;5024978;28;19922;-71
2023/07/19 05:55:01;;;;;;;;;;;19.40;99.90;;;;;;5024082;28;19929;-70
2023/07/19 05:57:30;;;;;;;;;;;19.60;99.90;;;;;;5024052;28;19921;-70
2023/07/19 05:59:58;;;;;;;;;;;19.80;99.90;;;;;;5015548;28;19922;-69
2023/07/19 06:02:25;;;;;;;;;;;19.90;99.90;;;;;;5023983;28;19922;-70
2023/07/19 06:04:52;;;;;;;;;;;20.00;99.90;;;;;;5024354;28;19988;-70
2023/07/19 06:07:19;;;;;;;;;;;20.10;99.90;;;;;;5023098;28;19925;-71
2023/07/19 06:09:45;;;;;;;;;;;20.20;99.90;;;;;;5023340;28;19976;-70
2023/07/19 06:12:12;;;;;;;;;;;20.30;99.90;;;;;;5024162;28;19988;-70
2023/07/19 06:14:40;;;;;;;;;;;20.40;99.90;;;;;;5024202;28;20112;-70
2023/07/19 06:17:06;;;;;;;;;;;20.50;99.90;;;;;;5024049;28;19921;-71
2023/07/19 06:19:33;;;;;;;;;;;20.60;99.90;;;;;;5023160;28;19927;-71
2023/07/19 06:22:00;;;;;;;;;;;20.80;99.90;;;;;;5023751;28;20065;-70
2023/07/19 06:24:26;;;;;;;;;;;20.80;99.90;;;;;;5018501;28;19961;-70
2023/07/19 06:26:53;;;;;;;;;;;20.90;99.90;;;;;;5023512;28;19985;-70
2023/07/19 06:29:20;;;;;;;;;;;20.90;99.90;;;;;;5022707;28;20264;-70
2023/07/19 06:31:48;;;;;;;;;;;21.00;99.90;;;;;;5023523;28;20281;-70
2023/07/19 06:34:14;;;;;;;;;;;21.10;99.90;;;;;;5023473;28;20283;-70
2023/07/19 06:36:41;;;;;;;;;;;21.10;99.90;;;;;;5023312;28;19921;-71
2023/07/19 06:39:08;;;;;;;;;;;21.20;99.90;;;;;;5019567;28;19928;-68
2023/07/19 06:41:34;;;;;;;;;;;21.30;99.90;;;;;;5012512;28;19993;-67
2023/07/19 06:44:01;;;;;;;;;;;21.30;99.90;;;;;;5003631;28;19990;-68
2023/07/19 06:46:28;;;;;;;;;;;21.30;99.90;;;;;;5003900;28;19928;-69
2023/07/19 06:48:56;;;;;;;;;;;21.40;99.90;;;;;;5010060;28;19964;-69
2023/07/19 06:51:22;;;;;;;;;;;21.40;99.90;;;;;;5026722;28;19928;-72
2023/07/19 06:53:49;;;;;;;;;;;21.50;99.90;;;;;;5025101;28;20156;-70
2023/07/19 06:56:16;;;;;;;;;;;21.60;99.90;;;;;;5027151;28;19992;-71
2023/07/19 06:58:42;;;;;;;;;;;21.60;99.90;;;;;;5026094;28;19949;-72
2023/07/19 07:01:09;;;;;;;;;;;21.70;99.90;;;;;;5027418;28;20268;-71
2023/07/19 07:03:36;;;;;;;;;;;21.70;99.90;;;;;;5019539;28;19989;-71
2023/07/19 07:06:04;;;;;;;;;;;21.80;99.90;;;;;;5026590;28;19988;-70
2023/07/19 07:08:31;;;;;;;;;;;21.90;99.90;;;;;;5026276;28;19928;-71
2023/07/19 07:10:59;;;;;;;;;;;22.00;99.90;;;;;;5026714;28;19979;-71
2023/07/19 07:13:26;;;;;;;;;;;22.10;99.90;;;;;;5027125;28;19984;-71
2023/07/19 07:15:53;;;;;;;;;;;22.10;99.90;;;;;;5027062;28;20032;-71
2023/07/19 07:18:19;;;;;;;;;;;22.20;99.90;;;;;;5025906;28;19979;-71
2023/07/19 07:20:46;;;;;;;;;;;22.20;99.90;;;;;;5026698;28;19922;-71
2023/07/19 07:23:14;;;;;;;;;;;22.30;99.90;;;;;;5026477;28;20213;-71
2023/07/19 07:25:41;;;;;;;;;;;22.40;99.90;;;;;;5026402;28;19939;-71
2023/07/19 07:28:08;;;;;;;;;;;22.50;99.90;;;;;;5025754;28;19930;-70
2023/07/19 07:30:35;;;;;;;;;;;22.50;99.90;;;;;;5026995;28;19921;-71
2023/07/19 07:33:02;;;;;;;;;;;22.60;99.90;;;;;;5026086;28;19926;-69
2023/07/19 07:35:29;;;;;;;;;;;22.70;99.90;;;;;;5026825;28;19921;-71
2023/07/19 07:37:55;;;;;;;;;;;22.80;99.90;;;;;;5024354;28;19984;-70
2023/07/19 07:40:23;;;;;;;;;;;22.90;99.90;;;;;;5025210;28;19949;-67
2023/07/19 07:42:50;;;;;;;;;;;23.00;99.90;;;;;;5025469;28;19952;-66
2023/07/19 07:45:17;;;;;;;;;;;23.10;99.90;;;;;;5026099;28;19921;-67
2023/07/19 07:47:44;;;;;;;;;;;23.10;99.90;;;;;;5023239;28;19922;-67
2023/07/19 07:50:11;;;;;;;;;;;23.20;99.90;;;;;;5024734;28;19992;-67
2023/07/19 07:52:37;;;;;;;;;;;23.30;99.90;;;;;;5026430;28;19921;-68
2023/07/19 07:55:05;;;;;;;;;;;23.40;99.90;;;;;;5025461;28;19921;-68
2023/07/19 07:57:34;;;;;;;;;;;23.60;99.90;;;;;;5025938;28;19944;-67
2023/07/19 08:00:00;;;;;;;;;;;23.60;99.90;;;;;;5023167;28;19921;-68
2023/07/19 08:02:27;;;;;;;;;;;23.70;99.90;;;;;;5029624;28;20550;-67
2023/07/19 08:04:54;;;;;;;;;;;23.70;99.90;;;;;;5028041;28;19922;-68
2023/07/19 08:07:20;;;;;;;;;;;23.80;99.90;;;;;;5043014;28;19953;-67
2023/07/19 08:09:47;;;;;;;;;;;23.90;99.90;;;;;;5024675;28;19925;-67
2023/07/19 08:12:14;;;;;;;;;;;23.90;99.90;;;;;;5008980;28;19963;-67
2023/07/19 08:14:42;;;;;;;;;;;24.00;99.90;;;;;;5022950;28;19948;-67
2023/07/19 08:17:09;;;;;;;;;;;24.10;99.90;;;;;;5018664;28;20430;-68
2023/07/19 08:19:35;;;;;;;;;;;24.20;99.90;;;;;;5024579;28;19956;-68
2023/07/19 08:22:03;;;;;;;;;;;24.30;99.90;;;;;;5025570;28;19992;-67
2023/07/19 08:24:30;;;;;;;;;;;24.30;99.90;;;;;;5026637;28;19922;-68
2023/07/19 08:26:57;;;;;;;;;;;24.30;99.90;;;;;;5025096;28;19964;-70
2023/07/19 08:29:23;;;;;;;;;;;24.40;99.90;;;;;;5025083;28;19964;-67
2023/07/19 08:31:51;;;;;;;;;;;24.50;99.90;;;;;;5025718;28;20009;-68
2023/07/19 08:34:18;;;;;;;;;;;24.60;99.90;;;;;;5023333;28;19984;-68
2023/07/19 08:36:45;;;;;;;;;;;24.60;99.90;;;;;;5022153;28;19984;-67
2023/07/19 08:39:12;;;;;;;;;;;24.70;99.90;;;;;;5018113;28;20234;-67
2023/07/19 08:41:39;;;;;;;;;;;24.70;99.90;;;;;;5005626;28;19969;-68
2023/07/19 08:44:05;;;;;;;;;;;24.80;99.90;;;;;;5005357;28;20190;-67
2023/07/19 08:46:33;;;;;;;;;;;24.80;99.90;;;;;;5005219;28;20176;-66
2023/07/19 08:49:02;;;;;;;;;;;24.80;99.90;;;;;;5002237;28;19928;-67
2023/07/19 08:51:29;;;;;;;;;;;24.80;99.90;;;;;;5007612;28;19929;-67
2023/07/19 08:53:56;;;;;;;;;;;24.90;99.90;;;;;;5041288;28;19949;-67
2023/07/19 08:56:23;;;;;;;;;;;24.90;99.90;;;;;;5045076;28;19988;-67
2023/07/19 08:58:49;;;;;;;;;;;25.00;99.90;;;;;;5026598;28;19952;-67
2023/07/19 09:01:16;;;;;;;;;;;25.00;99.90;;;;;;5024799;28;19949;-67
2023/07/19 09:03:43;;;;;;;;;;;25.00;99.90;;;;;;5025158;28;19965;-67
2023/07/19 09:06:12;;;;;;;;;;;25.10;99.90;;;;;;5003557;28;19922;-67
2023/07/19 09:08:39;;;;;;;;;;;25.10;99.90;;;;;;5003370;28;20178;-66
2023/07/19 09:11:06;;;;;;;;;;;25.20;99.90;;;;;;5004465;28;19922;-67
2023/07/19 09:13:33;;;;;;;;;;;25.20;99.90;;;;;;5004782;28;19929;-68
2023/07/19 09:16:03;;;;;;;;;;;25.30;99.90;;;;;;5015914;28;19989;-68
2023/07/19 09:18:33;;;;;;;;;;;25.30;99.90;;;;;;5004417;28;19928;-68
2023/07/19 09:21:00;;;;;;;;;;;25.40;99.90;;;;;;5014620;28;20167;-68
2023/07/19 09:23:33;;;;;;;;;;;25.40;99.90;;;;;;5024576;28;19921;-69
2023/07/19 09:26:00;;;;;;;;;;;25.50;99.90;;;;;;5024718;28;20113;-68
2023/07/19 09:28:27;;;;;;;;;;;25.50;99.90;;;;;;5023619;28;19953;-68
2023/07/19 09:31:05;;;;;;;;;;;25.60;99.90;;;;;;5024595;28;19957;-66
2023/07/19 09:33:31;;;;;;;;;;;25.60;99.90;;;;;;5024617;28;19989;-68
2023/07/19 09:35:58;;;;;;;;;;;25.70;99.90;;;;;;5041704;28;19983;-68
2023/07/19 09:38:26;;;;;;;;;;;25.70;99.90;;;;;;5043763;28;20141;-70
2023/07/19 09:40:55;;;;;;;;;;;25.60;99.90;;;;;;5044310;28;19921;-70
2023/07/19 09:43:22;;;;;;;;;;;25.60;99.90;;;;;;5044048;28;20216;-70
2023/07/19 09:45:49;;;;;;;;;;;25.60;99.90;;;;;;5044195;28;19944;-71
2023/07/19 09:48:17;;;;;;;;;;;25.70;99.90;;;;;;5016401;28;19989;-70
2023/07/19 09:50:43;;;;;;;;;;;25.80;99.90;;;;;;5021374;28;19949;-71
2023/07/19 09:53:11;;;;;;;;;;;25.90;99.90;;;;;;5020769;28;19929;-70
2023/07/19 09:55:38;;;;;;;;;;;25.90;99.90;;;;;;5031150;28;20269;-69
2023/07/19 09:58:08;;;;;;;;;;;25.90;99.90;;;;;;5023361;28;19944;-70
2023/07/19 10:00:37;;;;;;;;;;;25.90;99.90;;;;;;5025588;28;22172;-71
2023/07/19 10:03:06;;;;;;;;;;;26.00;99.90;;;;;;5035006;28;19921;-71
2023/07/19 10:05:35;;;;;;;;;;;26.10;99.90;;;;;;5021050;28;19992;-70
2023/07/19 10:08:02;;;;;;;;;;;26.10;99.90;;;;;;5023257;28;19947;-71
2023/07/19 10:10:35;;;;;;;;;;;26.10;99.90;;;;;;5023743;28;19996;-70
2023/07/19 10:13:01;;;;;;;;;;;26.10;99.90;;;;;;5023957;28;19921;-71
2023/07/19 10:15:29;;;;;;;;;;;26.10;99.90;;;;;;5023481;28;19953;-71
2023/07/19 10:17:58;;;;;;;;;;;26.00;99.90;;;;;;5022849;28;19921;-71
2023/07/19 10:20:27;;;;;;;;;;;26.10;99.90;;;;;;5023474;28;19985;-69
2023/07/19 10:22:55;;;;;;;;;;;26.20;99.90;;;;;;5023407;28;20217;-70
2023/07/19 10:25:24;;;;;;;;;;;26.20;99.90;;;;;;5023357;28;19989;-70
2023/07/19 10:27:57;;;;;;;;;;;26.20;99.90;;;;;;5023352;28;19921;-71
2023/07/19 10:30:38;;;;;;;;;;;26.10;99.90;;;;;;5023416;28;19922;-70
2023/07/19 10:33:06;;;;;;;;;;;26.20;99.90;;;;;;5023648;28;19980;-72
2023/07/19 10:35:33;;;;;;;;;;;26.30;99.90;;;;;;5023531;28;19927;-70
2023/07/19 10:38:01;;;;;;;;;;;26.40;99.90;;;;;;5022495;28;19921;-71
2023/07/19 10:40:28;;;;;;;;;;;26.40;99.90;;;;;;5023634;28;19929;-70
2023/07/19 10:42:55;;;;;;;;;;;26.50;99.90;;;;;;5023442;28;19928;-71
2023/07/19 10:45:25;;;;;;;;;;;26.70;99.90;;;;;;5023592;28;19980;-70
2023/07/19 10:47:51;;;;;;;;;;;26.90;99.90;;;;;;5022927;28;19929;-70
2023/07/19 10:50:24;;;;;;;;;;;27.10;99.90;;;;;;5022906;28;19993;-70
2023/07/19 10:52:51;;;;;;;;;;;27.20;99.90;;;;;;5023553;28;20193;-70
2023/07/19 10:55:17;;;;;;;;;;;27.10;99.90;;;;;;5023288;28;19936;-70
2023/07/19 10:57:44;;;;;;;;;;;27.00;99.90;;;;;;5023019;28;19922;-70
2023/07/19 11:00:12;;;;;;;;;;;27.00;99.80;;;;;;5022841;28;19985;-70
2023/07/19 11:02:39;;;;;;;;;;;27.10;99.40;;;;;;5023007;28;19968;-71
2023/07/19 11:05:07;;;;;;;;;;;27.20;98.80;;;;;;5023239;28;19922;-70
2023/07/19 11:07:37;;;;;;;;;;;27.20;98.10;;;;;;5020718;28;19964;-70
2023/07/19 11:10:04;;;;;;;;;;;27.10;97.30;;;;;;5022762;28;19921;-70
2023/07/19 11:12:31;;;;;;;;;;;27.10;97.30;;;;;;5027066;28;19989;-70
2023/07/19 11:15:00;;;;;;;;;;;27.20;98.10;;;;;;5023050;28;19980;-71
2023/07/19 11:17:28;;;;;;;;;;;27.40;98.00;;;;;;5021506;28;19930;-70
2023/07/19 11:19:54;;;;;;;;;;;27.30;98.00;;;;;;5022074;28;19984;-70
2023/07/19 11:22:22;;;;;;;;;;;27.30;97.80;;;;;;5023085;28;19928;-70
2023/07/19 11:24:51;;;;;;;;;;;27.30;97.60;;;;;;5022686;28;20209;-69
2023/07/19 11:27:18;;;;;;;;;;;27.40;97.50;;;;;;5003357;28;19949;-70
2023/07/19 11:29:48;;;;;;;;;;;27.30;97.10;;;;;;5002223;28;20296;-70
2023/07/19 11:32:16;;;;;;;;;;;27.40;97.20;;;;;;5000805;28;19922;-71
2023/07/19 11:34:49;;;;;;;;;;;27.50;97.30;;;;;;5003752;28;19922;-70
2023/07/19 11:37:17;;;;;;;;;;;27.60;96.80;;;;;;5023213;28;19988;-71
2023/07/19 11:39:43;;;;;;;;;;;27.60;96.80;;;;;;5018043;28;20236;-69
2023/07/19 11:42:11;;;;;;;;;;;27.50;96.70;;;;;;5005971;28;19956;-69
2023/07/19 11:44:42;;;;;;;;;;;27.50;96.80;;;;;;5016868;28;19948;-69
2023/07/19 11:47:09;;;;;;;;;;;27.50;97.00;;;;;;5026344;28;19921;-68
2023/07/19 11:49:35;;;;;;;;;;;27.50;96.80;;;;;;5025195;28;19952;-68
2023/07/19 11:52:02;;;;;;;;;;;27.50;97.40;;;;;;5033279;28;19959;-68
2023/07/19 11:54:29;;;;;;;;;;;27.50;97.40;;;;;;5026030;28;20113;-68
2023/07/19 11:56:55;;;;;;;;;;;27.50;97.30;;;;;;5025777;28;19929;-68
2023/07/19 11:59:24;;;;;;;;;;;27.40;97.50;;;;;;5021560;28;19963;-68
2023/07/19 12:01:51;;;;;;;;;;;27.30;97.40;;;;;;5025864;28;20205;-68
2023/07/19 12:04:17;;;;;;;;;;;27.20;97.10;;;;;;5026255;28;19960;-68
2023/07/19 12:06:44;;;;;;;;;;;27.20;96.90;;;;;;5039728;28;19921;-68
2023/07/19 12:09:13;;;;;;;;;;;27.20;97.10;;;;;;5043066;28;19943;-67
2023/07/19 12:11:40;;;;;;;;;;;27.10;96.40;;;;;;5025955;28;19929;-70
2023/07/19 12:14:07;;;;;;;;;;;27.10;96.70;;;;;;5025981;28;19928;-68
2023/07/19 12:16:35;;;;;;;;;;;27.10;96.80;;;;;;5016573;28;19922;-68
2023/07/19 12:19:01;;;;;;;;;;;27.20;96.80;;;;;;5004151;28;19921;-68
2023/07/19 12:21:29;;;;;;;;;;;27.20;96.60;;;;;;5009882;28;19922;-69
2023/07/19 12:23:56;;;;;;;;;;;27.10;95.90;;;;;;5006143;28;19921;-68
2023/07/19 12:26:23;;;;;;;;;;;27.00;96.30;;;;;;5005942;28;19929;-68
2023/07/19 12:28:50;;;;;;;;;;;27.00;96.60;;;;;;5016015;28;19957;-68
2023/07/19 12:31:18;;;;;;;;;;;27.00;96.80;;;;;;5023558;28;19944;-67
2023/07/19 12:33:47;;;;;;;;;;;27.00;96.70;;;;;;5032968;28;19959;-68
2023/07/19 12:36:13;;;;;;;;;;;27.00;96.00;;;;;;5034342;28;19922;-68
2023/07/19 12:38:40;;;;;;;;;;;27.10;97.30;;;;;;5024457;28;19967;-68
2023/07/19 12:41:07;;;;;;;;;;;27.50;98.30;;;;;;5025062;28;20172;-68
2023/07/19 12:43:33;;;;;;;;;;;28.00;96.30;;;;;;5016016;28;19956;-68
2023/07/19 12:46:00;;;;;;;;;;;28.40;95.10;;;;;;5027014;28;20168;-68
2023/07/19 12:48:27;;;;;;;;;;;28.80;95.60;;;;;;5023848;28;20177;-69
2023/07/19 12:50:55;;;;;;;;;;;29.10;94.90;;;;;;5024692;28;19921;-68
2023/07/19 12:53:22;;;;;;;;;;;29.40;93.60;;;;;;5030293;28;19921;-69
2023/07/19 12:55:48;;;;;;;;;;;29.60;93.30;;;;;;5024700;28;19930;-69
2023/07/19 12:58:15;;;;;;;;;;;29.80;93.10;;;;;;5024081;28;19957;-69
2023/07/19 13:00:41;;;;;;;;;;;29.80;92.40;;;;;;5022158;28;20005;-68
2023/07/19 13:03:09;;;;;;;;;;;29.70;92.60;;;;;;5024803;28;19980;-68
2023/07/19 13:05:35;;;;;;;;;;;29.60;92.80;;;;;;5043573;28;19953;-71
2023/07/19 13:08:04;;;;;;;;;;;29.70;92.40;;;;;;5044435;28;19921;-69
2023/07/19 13:10:31;;;;;;;;;;;29.80;92.50;;;;;;5032731;28;19929;-68
2023/07/19 13:12:58;;;;;;;;;;;30.00;92.60;;;;;;5024782;28;19975;-69
2023/07/19 13:15:25;;;;;;;;;;;30.30;93.00;;;;;;5024650;28;19928;-69
2023/07/19 13:17:53;;;;;;;;;;;30.60;91.90;;;;;;5018748;28;20120;-68
2023/07/19 13:20:20;;;;;;;;;;;30.70;89.90;;;;;;5023881;28;19964;-69
2023/07/19 13:22:47;;;;;;;;;;;30.80;90.20;;;;;;5024387;28;19925;-69
2023/07/19 13:25:17;;;;;;;;;;;30.70;88.80;;;;;;5024134;28;19921;-68
2023/07/19 13:27:46;;;;;;;;;;;30.50;88.70;;;;;;5023741;28;19984;-68
2023/07/19 13:30:12;;;;;;;;;;;30.00;88.60;;;;;;5023965;28;19921;-67
2023/07/19 13:32:39;;;;;;;;;;;29.70;89.90;;;;;;5024305;28;20166;-69
2023/07/19 13:35:06;;;;;;;;;;;29.50;90.70;;;;;;5024058;28;20228;-69
2023/07/19 13:37:33;;;;;;;;;;;29.30;90.80;;;;;;5024197;28;20176;-68
2023/07/19 13:40:00;;;;;;;;;;;29.20;90.70;;;;;;5023568;28;20152;-69
2023/07/19 13:42:32;;;;;;;;;;;29.00;90.20;;;;;;5024154;28;20156;-69
2023/07/19 13:44:59;;;;;;;;;;;28.80;90.30;;;;;;5023809;28;19930;-68
2023/07/19 13:47:25;;;;;;;;;;;28.60;90.10;;;;;;5024484;28;20172;-69
2023/07/19 13:49:52;;;;;;;;;;;28.40;90.50;;;;;;5023378;28;19922;-69
2023/07/19 13:52:18;;;;;;;;;;;28.20;90.60;;;;;;5023923;28;19956;-69
2023/07/19 13:54:45;;;;;;;;;;;28.20;91.10;;;;;;5024037;28;20186;-69
2023/07/19 13:57:12;;;;;;;;;;;28.10;90.90;;;;;;5023094;28;19988;-69
2023/07/19 13:59:40;;;;;;;;;;;27.90;90.70;;;;;;5022864;28;19921;-69
2023/07/19 14:02:06;;;;;;;;;;;27.80;90.70;;;;;;5024092;28;19964;-68
2023/07/19 14:04:37;;;;;;;;;;;27.70;91.20;;;;;;5020998;28;20196;-68
2023/07/19 14:07:04;;;;;;;;;;;27.60;91.00;;;;;;5013002;28;19921;-69
2023/07/19 14:09:30;;;;;;;;;;;27.50;91.30;;;;;;5022230;28;19989;-69
2023/07/19 14:12:00;;;;;;;;;;;27.40;91.30;;;;;;5022361;28;19971;-68
2023/07/19 14:14:27;;;;;;;;;;;27.20;91.70;;;;;;5022153;28;19993;-69
2023/07/19 14:16:55;;;;;;;;;;;27.10;92.30;;;;;;5011661;28;20094;-69
2023/07/19 14:19:21;;;;;;;;;;;26.90;95.20;;;;;;5014839;28;19921;-70